createdAt,value
2023-01-19T00:04:53.927Z,24.90
2023-01-19T00:09:58.392Z,21.48
2023-01-19T00:15:01.458Z,25.15
2023-01-19T00:20:04.966Z,24.40
2023-01-19T00:25:10.252Z,23.83
2023-01-19T00:30:13.789Z,24.92
2023-01-19T00:35:18.298Z,23.13
2023-01-19T00:40:22.752Z,23.70
2023-01-19T00:45:25.979Z,26.98
2023-01-19T00:50:29.962Z,22.80
2023-01-19T00:55:34.445Z,27.67
2023-01-19T01:00:37.536Z,26.27
2023-01-19T01:05:41.530Z,25.05
2023-01-19T01:10:46.026Z,21.48
2023-01-19T01:15:50.387Z,22.65
2023-01-19T01:20:55.335Z,26.98
2023-01-19T01:26:00.951Z,27.00
2023-01-19T01:31:04.041Z,21.48
2023-01-19T01:36:07.604Z,21.05
2023-01-19T01:41:12.653Z,18.85
2023-01-19T01:46:17.216Z,21.60
2023-01-19T01:51:26.446Z,19.80
2023-01-19T01:56:33.747Z,20.02
2023-01-19T02:01:55.338Z,23.40
2023-01-19T02:07:15.992Z,20.60
2023-01-19T02:12:37.955Z,16.90
2023-01-19T02:17:41.047Z,19.08
2023-01-19T02:22:47.877Z,18.10
2023-01-19T02:27:52.672Z,17.58
2023-01-19T02:32:55.778Z,19.33
2023-01-19T02:37:58.976Z,19.67
2023-01-19T02:43:04.204Z,20.27
2023-01-19T02:48:07.968Z,16.08
2023-01-19T02:53:22.292Z,17.15
2023-01-19T02:58:32.961Z,14.57
2023-01-19T03:03:38.555Z,14.25
2023-01-19T03:08:45.180Z,11.98
2023-01-19T03:13:52.620Z,13.05
2023-01-19T03:18:56.770Z,11.15
2023-01-19T03:24:01.928Z,11.43
2023-01-19T03:29:07.898Z,12.15
2023-01-19T03:34:12.808Z,13.15
2023-01-19T03:39:17.701Z,9.73
2023-01-19T03:44:22.377Z,9.75
2023-01-19T03:49:25.502Z,6.70
2023-01-19T03:54:28.993Z,6.32
2023-01-19T03:59:33.406Z,4.53
2023-01-19T04:04:36.457Z,1.75
2023-01-19T04:09:39.587Z,1.45
2023-01-19T04:14:44.028Z,4.00
2023-01-19T04:19:47.121Z,3.58
2023-01-19T04:24:50.161Z,2.20
2023-01-19T04:29:54.661Z,6.03
2023-01-19T04:34:57.759Z,4.38
2023-01-19T04:40:00.868Z,3.92
2023-01-19T04:45:05.711Z,1.85
2023-01-19T04:50:09.634Z,4.47
2023-01-19T04:55:12.796Z,3.35
2023-01-19T05:00:18.616Z,3.03
2023-01-19T05:05:21.707Z,4.85
2023-01-19T05:10:25.399Z,3.58
2023-01-19T05:15:29.935Z,5.53
2023-01-19T05:20:33.049Z,8.27
2023-01-19T05:25:36.197Z,8.13
2023-01-19T05:30:42.845Z,4.90
2023-01-19T05:35:45.929Z,7.35
2023-01-19T05:40:49.102Z,3.70
2023-01-19T05:45:53.710Z,7.00
2023-01-19T05:50:59.899Z,2.88
2023-01-19T05:56:03.413Z,4.20
2023-01-19T06:01:08.594Z,2.03
2023-01-19T06:06:12.534Z,9.13
2023-01-19T06:11:15.565Z,9.65
2023-01-19T06:16:19.997Z,11.93
2023-01-19T06:21:23.187Z,8.65
2023-01-19T06:26:26.352Z,7.57
2023-01-19T06:31:30.934Z,13.90
2023-01-19T06:36:34.107Z,8.27
2023-01-19T06:41:37.543Z,7.60
2023-01-19T06:46:42.102Z,16.25
2023-01-19T06:51:45.189Z,8.95
2023-01-19T06:56:48.279Z,17.10
2023-01-19T07:01:52.904Z,8.00
2023-01-19T07:06:56.054Z,15.65
2023-01-19T07:11:59.150Z,16.25
2023-01-19T07:17:03.573Z,11.90
2023-01-19T07:22:06.801Z,7.75
2023-01-19T07:27:11.577Z,7.80
2023-01-19T07:32:16.159Z,11.30
2023-01-19T07:37:19.528Z,13.10
2023-01-19T07:42:22.986Z,14.25
2023-01-19T07:47:27.631Z,13.35
2023-01-19T07:52:30.852Z,10.90
2023-01-19T07:57:34.052Z,16.15
2023-01-19T08:02:38.775Z,12.27
2023-01-19T08:07:42.154Z,12.80
2023-01-19T08:12:45.571Z,12.98
2023-01-19T08:17:56.674Z,9.00
2023-01-19T08:23:01.656Z,18.55
2023-01-19T08:28:06.221Z,18.35
2023-01-19T08:33:10.841Z,15.18
2023-01-19T08:38:14.273Z,14.98
2023-01-19T08:43:21.030Z,17.80
2023-01-19T08:48:25.857Z,29.35
2023-01-19T08:53:28.983Z,19.05
2023-01-19T08:58:32.454Z,24.67
2023-01-19T09:03:37.236Z,15.77
2023-01-19T09:08:40.450Z,24.17
2023-01-19T09:13:43.738Z,20.15
2023-01-19T09:18:48.633Z,22.25
2023-01-19T09:23:51.825Z,18.13
2023-01-19T09:28:55.357Z,22.67
2023-01-19T09:33:59.843Z,15.85
2023-01-19T09:39:03.115Z,17.45
2023-01-19T09:44:07.489Z,26.73
2023-01-19T09:49:14.934Z,21.40
2023-01-19T09:54:19.250Z,11.40
2023-01-19T09:59:23.710Z,13.07
2023-01-19T10:04:35.554Z,12.20
2023-01-19T10:09:43.170Z,9.60
2023-01-19T10:14:49.448Z,15.15
2023-01-19T10:19:55.323Z,12.73
2023-01-19T10:25:00.474Z,19.98
2023-01-19T10:30:04.120Z,18.55
2023-01-19T10:35:15.498Z,15.20
2023-01-19T10:40:23.395Z,17.63
2023-01-19T10:45:29.481Z,23.85
2023-01-19T10:50:35.158Z,18.98
2023-01-19T10:55:43.332Z,16.92
2023-01-19T11:00:46.516Z,18.75
2023-01-19T11:05:51.182Z,19.48
2023-01-19T11:10:57.084Z,14.63
2023-01-19T11:16:01.037Z,13.43
2023-01-19T11:21:07.178Z,27.15
2023-01-19T11:26:10.978Z,15.68
2023-01-19T11:31:20.936Z,22.60
2023-01-19T11:36:26.686Z,17.77
2023-01-19T11:41:30.994Z,27.10
2023-01-19T11:46:34.884Z,20.55
2023-01-19T11:51:42.152Z,19.55
2023-01-19T11:56:45.596Z,25.27
2023-01-19T12:01:51.721Z,21.77
2023-01-19T12:06:57.716Z,25.80
2023-01-19T12:12:04.214Z,27.55
2023-01-19T12:17:09.973Z,23.33
2023-01-19T12:22:16.960Z,21.95
2023-01-19T12:27:23.792Z,20.95
2023-01-19T12:32:37.031Z,16.90
2023-01-19T12:37:44.267Z,18.45
2023-01-19T12:42:48.366Z,16.90
2023-01-19T12:47:52.983Z,20.20
2023-01-19T12:52:59.537Z,13.55
2023-01-19T12:58:05.026Z,17.92
2023-01-19T13:03:27.024Z,14.35
2023-01-19T13:08:52.273Z,20.05
2023-01-19T13:14:26.404Z,14.30
2023-01-19T13:19:44.678Z,15.32
2023-01-19T13:25:09.114Z,20.08
2023-01-19T13:30:13.589Z,11.10
2023-01-19T13:35:18.453Z,15.98
2023-01-19T13:40:25.316Z,11.68
2023-01-19T13:45:31.061Z,10.73
2023-01-19T13:50:35.463Z,9.25
2023-01-19T13:55:40.164Z,13.02
2023-01-19T14:00:46.527Z,10.18
2023-01-19T14:05:52.337Z,16.42
2023-01-19T14:11:03.420Z,11.15
2023-01-19T14:16:07.652Z,9.68
2023-01-19T14:21:12.241Z,12.48
2023-01-19T14:26:35.065Z,6.30
2023-01-19T14:31:45.244Z,7.80
2023-01-19T14:36:51.539Z,3.60
2023-01-19T14:41:56.520Z,6.25
2023-01-19T14:47:01.630Z,4.68
2023-01-19T14:52:06.306Z,3.40
2023-01-19T14:57:12.455Z,5.03
2023-01-19T15:02:18.711Z,6.38
2023-01-19T15:07:23.979Z,11.90
2023-01-19T15:12:28.918Z,6.22
2023-01-19T15:17:34.163Z,5.78
2023-01-19T15:22:37.428Z,9.90
2023-01-19T15:27:40.853Z,23.48
2023-01-19T15:32:45.608Z,14.88
2023-01-19T15:37:49.281Z,14.18
2023-01-19T15:42:52.533Z,17.13
2023-01-19T15:47:57.106Z,21.98
2023-01-19T15:53:00.461Z,25.52
2023-01-19T15:58:03.685Z,24.92
2023-01-19T16:03:08.404Z,30.15
2023-01-19T16:08:11.981Z,28.83
2023-01-19T16:13:15.435Z,31.80
2023-01-19T16:18:19.873Z,31.70
2023-01-19T16:23:23.050Z,31.42
2023-01-19T16:28:26.594Z,29.75
2023-01-19T16:33:31.696Z,28.95
2023-01-19T16:38:34.970Z,37.10
2023-01-19T16:43:38.114Z,33.15
2023-01-19T16:48:42.775Z,27.90
2023-01-19T16:53:46.338Z,21.83
2023-01-19T16:58:49.500Z,24.92
2023-01-19T17:03:54.235Z,19.40
2023-01-19T17:08:57.445Z,24.58
2023-01-19T17:14:01.484Z,27.42
2023-01-19T17:19:07.083Z,25.13
2023-01-19T17:24:11.083Z,22.70
2023-01-19T17:29:14.482Z,23.25
2023-01-19T17:34:19.346Z,28.50
2023-01-19T17:39:22.641Z,29.00
2023-01-19T17:44:25.992Z,36.53
2023-01-19T17:49:31.168Z,34.45
2023-01-19T17:54:35.615Z,41.97
2023-01-19T17:59:41.251Z,41.40
2023-01-19T18:04:46.009Z,40.15
2023-01-19T18:09:49.547Z,39.72
2023-01-19T18:14:52.758Z,38.20
2023-01-19T18:19:57.358Z,40.80
2023-01-19T18:25:01.800Z,41.58
2023-01-19T18:30:06.005Z,40.35
2023-01-19T18:35:11.190Z,44.35
2023-01-19T18:40:14.775Z,40.15
2023-01-19T18:45:17.998Z,40.70
2023-01-19T18:50:22.678Z,47.08
2023-01-19T18:55:26.093Z,104.43
2023-01-19T19:00:29.406Z,43.72
2023-01-19T19:05:34.415Z,40.42
2023-01-19T19:10:37.884Z,43.92
2023-01-19T19:15:41.052Z,45.83
2023-01-19T19:20:45.784Z,42.80
2023-01-19T19:25:49.003Z,34.92
2023-01-19T19:31:02.867Z,47.53
2023-01-19T19:36:08.576Z,45.15
2023-01-19T19:41:14.608Z,46.20
2023-01-19T19:46:20.276Z,48.00
2023-01-19T19:51:27.222Z,51.40
2023-01-19T19:56:31.159Z,47.50
2023-01-19T20:01:34.840Z,45.80
2023-01-19T20:06:40.206Z,56.33
2023-01-19T20:11:43.786Z,47.08
2023-01-19T20:16:46.988Z,51.83
2023-01-19T20:21:51.512Z,66.63
2023-01-19T20:26:56.307Z,49.45
2023-01-19T20:31:59.674Z,52.25
2023-01-19T20:37:06.334Z,48.45
2023-01-19T20:42:11.635Z,48.88
2023-01-19T20:47:14.999Z,53.83
2023-01-19T20:52:21.215Z,50.20
2023-01-19T20:57:24.492Z,55.90
2023-01-19T21:02:28.612Z,61.67
2023-01-19T21:07:33.288Z,59.78
2023-01-19T21:12:36.379Z,57.25
2023-01-19T21:17:39.733Z,54.58
2023-01-19T21:22:44.488Z,59.03
2023-01-19T21:27:47.712Z,54.42
2023-01-19T21:32:50.927Z,50.63
2023-01-19T21:37:55.795Z,53.65
2023-01-19T21:42:59.022Z,52.47
2023-01-19T21:48:02.163Z,53.65
2023-01-19T21:53:09.498Z,53.67
2023-01-19T21:58:12.720Z,57.08
2023-01-19T22:03:16.998Z,62.85
2023-01-19T22:08:21.779Z,54.30
2023-01-19T22:13:25.009Z,77.20
2023-01-19T22:18:28.524Z,55.05
2023-01-19T22:23:33.370Z,60.17
2023-01-19T22:28:36.925Z,57.17
2023-01-19T22:33:40.191Z,60.47
2023-01-19T22:38:45.623Z,64.05
2023-01-19T22:43:48.776Z,58.25
2023-01-19T22:48:54.581Z,51.30
2023-01-19T22:53:59.286Z,37.60
2023-01-19T22:59:03.229Z,33.47
2023-01-19T23:04:06.825Z,22.67
2023-01-19T23:09:13.437Z,17.80
2023-01-19T23:14:17.712Z,13.75
2023-01-19T23:19:20.820Z,15.45
2023-01-19T23:24:25.325Z,9.93
2023-01-19T23:29:28.417Z,8.88
2023-01-19T23:34:31.501Z,9.63
2023-01-19T23:39:35.952Z,13.38
2023-01-19T23:44:39.027Z,18.73
2023-01-19T23:49:42.350Z,28.80
2023-01-19T23:54:46.779Z,34.35
2023-01-19T23:59:50.071Z,28.30
